createdAt,value
2022-08-07T00:00:44.990Z,50.26
2022-08-07T00:03:47.422Z,49.98
2022-08-07T00:06:14.818Z,50.25
2022-08-07T00:08:44.326Z,50.28
2022-08-07T00:11:11.282Z,50.22
2022-08-07T00:13:44.748Z,50.45
2022-08-07T00:16:12.401Z,51.28
2022-08-07T00:18:50.996Z,51.32
2022-08-07T00:21:56.078Z,50.21
2022-08-07T00:24:04.540Z,50.25
2022-08-07T00:26:59.452Z,50.85
2022-08-07T00:29:25.865Z,50.64
2022-08-07T00:32:01.979Z,50.46
2022-08-07T00:34:55.423Z,50.59
2022-08-07T00:37:48.379Z,50.12
2022-08-07T00:40:40.079Z,50.18
2022-08-07T00:43:10.799Z,49.59
2022-08-07T00:45:56.347Z,49.60
2022-08-07T00:48:25.043Z,49.40
2022-08-07T00:50:58.982Z,50.16
2022-08-07T00:53:38.903Z,49.70
2022-08-07T00:56:17.157Z,49.92
2022-08-07T00:58:46.980Z,50.34
2022-08-07T01:01:17.914Z,51.26
2022-08-07T01:03:55.394Z,49.90
2022-08-07T01:06:24.839Z,49.90
2022-08-07T01:10:05.060Z,48.97
2022-08-07T01:12:53.343Z,48.82
2022-08-07T01:15:22.271Z,48.36
2022-08-07T01:18:03.267Z,48.65
2022-08-07T01:20:35.339Z,48.31
2022-08-07T01:23:12.157Z,48.04
2022-08-07T01:25:55.605Z,48.80
2022-08-07T01:28:32.899Z,48.20
2022-08-07T01:31:01.562Z,49.04
2022-08-07T01:33:55.662Z,49.44
2022-08-07T01:36:16.986Z,48.38
2022-08-07T01:38:44.167Z,48.97
2022-08-07T01:41:12.178Z,48.95
2022-08-07T01:44:24.495Z,48.67
2022-08-07T01:48:17.722Z,48.89
2022-08-07T01:50:05.290Z,48.17
2022-08-07T01:52:34.448Z,48.49
2022-08-07T01:55:03.870Z,47.79
2022-08-07T01:58:06.005Z,47.92
2022-08-07T02:00:29.386Z,47.97
2022-08-07T02:03:18.324Z,47.74
2022-08-07T02:05:59.997Z,48.34
2022-08-07T02:08:29.429Z,48.34
2022-08-07T02:10:59.504Z,47.56
2022-08-07T02:13:56.906Z,48.71
2022-08-07T02:16:19.934Z,48.75
2022-08-07T02:20:06.650Z,48.69
2022-08-07T02:22:20.149Z,48.55
2022-08-07T02:24:50.322Z,48.61
2022-08-07T02:27:20.697Z,48.50
2022-08-07T02:29:54.661Z,48.62
2022-08-07T02:32:29.807Z,48.23
2022-08-07T02:34:58.708Z,48.38
2022-08-07T02:37:44.186Z,47.80
2022-08-07T02:40:30.179Z,48.01
2022-08-07T02:42:58.955Z,48.17
2022-08-07T02:45:59.325Z,48.00
2022-08-07T02:48:15.658Z,48.14
2022-08-07T02:50:44.835Z,47.67
2022-08-07T02:56:31.476Z,48.16
2022-08-07T02:59:02.184Z,47.79
2022-08-07T03:01:36.455Z,48.89
2022-08-07T03:04:12.437Z,48.36
2022-08-07T03:06:42.112Z,47.50
2022-08-07T03:09:11.967Z,47.95
2022-08-07T03:11:57.925Z,48.79
2022-08-07T03:14:29.645Z,48.00
2022-08-07T03:16:57.206Z,48.71
2022-08-07T03:19:28.983Z,48.24
2022-08-07T03:22:05.576Z,48.41
2022-08-07T03:24:33.126Z,47.84
2022-08-07T03:27:30.826Z,48.23
2022-08-07T03:30:33.910Z,48.81
2022-08-07T03:33:10.918Z,48.23
2022-08-07T03:35:50.267Z,47.90
2022-08-07T03:38:20.905Z,47.76
2022-08-07T03:40:57.220Z,48.49
2022-08-07T03:43:26.496Z,47.67
2022-08-07T03:46:10.476Z,48.11
2022-08-07T03:49:02.098Z,48.29
2022-08-07T03:51:47.927Z,47.55
2022-08-07T03:54:36.255Z,47.46
2022-08-07T03:57:07.603Z,47.28
2022-08-07T03:59:34.652Z,47.30
2022-08-07T04:02:20.026Z,47.11
2022-08-07T04:05:40.940Z,46.90
2022-08-07T04:08:16.315Z,47.12
2022-08-07T04:10:54.275Z,46.76
2022-08-07T04:14:10.294Z,46.93
2022-08-07T04:16:31.039Z,46.47
2022-08-07T04:19:03.918Z,46.84
2022-08-07T04:21:37.104Z,46.66
2022-08-07T04:24:10.421Z,46.80
2022-08-07T04:26:58.093Z,47.14
2022-08-07T04:29:24.715Z,47.28
2022-08-07T04:32:09.624Z,47.25
2022-08-07T04:34:37.729Z,47.37
2022-08-07T04:38:05.473Z,47.14
2022-08-07T04:41:01.025Z,47.51
2022-08-07T04:44:09.846Z,47.41
2022-08-07T04:46:59.280Z,47.80
2022-08-07T04:49:47.332Z,47.69
2022-08-07T04:53:07.454Z,47.41
2022-08-07T04:58:15.330Z,47.47
2022-08-07T05:00:12.875Z,48.01
2022-08-07T05:02:16.935Z,48.35
2022-08-07T05:05:52.859Z,48.14
2022-08-07T05:08:59.307Z,48.37
2022-08-07T05:11:58.532Z,48.15
2022-08-07T05:15:23.530Z,48.40
2022-08-07T05:17:56.663Z,48.65
2022-08-07T05:20:30.827Z,47.49
2022-08-07T05:23:02.173Z,48.68
2022-08-07T05:26:10.198Z,48.44
2022-08-07T05:28:23.046Z,48.50
2022-08-07T05:30:56.931Z,49.43
2022-08-07T05:33:23.776Z,56.76
2022-08-07T05:35:53.591Z,58.25
2022-08-07T05:39:00.495Z,62.30
2022-08-07T05:41:14.465Z,62.74
2022-08-07T05:44:01.246Z,64.70
2022-08-07T05:46:44.340Z,72.58
2022-08-07T05:49:18.335Z,74.48
2022-08-07T05:51:46.587Z,76.25
2022-08-07T05:54:30.707Z,75.51
2022-08-07T05:57:03.506Z,76.12
2022-08-07T05:59:47.294Z,78.38
2022-08-07T06:02:28.810Z,75.73
2022-08-07T06:05:15.403Z,77.18
2022-08-07T06:08:13.406Z,74.27
2022-08-07T06:13:00.489Z,75.68
2022-08-07T06:15:42.008Z,75.20
2022-08-07T06:18:14.033Z,74.21
2022-08-07T06:22:14.426Z,74.67
2022-08-07T06:24:38.390Z,74.05
2022-08-07T06:26:42.534Z,73.80
2022-08-07T06:29:10.022Z,73.46
2022-08-07T06:31:46.692Z,73.38
2022-08-07T06:34:20.644Z,73.78
2022-08-07T06:36:47.802Z,70.06
2022-08-07T06:40:16.903Z,69.89
2022-08-07T06:42:17.817Z,69.39
2022-08-07T06:44:51.145Z,68.33
2022-08-07T06:47:19.318Z,65.80
2022-08-07T06:49:52.152Z,66.25
2022-08-07T06:52:31.241Z,62.91
2022-08-07T06:56:01.591Z,62.13
2022-08-07T07:00:13.121Z,59.60
2022-08-07T07:01:48.682Z,61.28
2022-08-07T07:04:32.588Z,58.78
2022-08-07T07:07:02.293Z,59.83
2022-08-07T07:09:31.426Z,59.59
2022-08-07T07:12:09.035Z,58.20
2022-08-07T07:15:26.089Z,57.67
2022-08-07T07:18:43.087Z,57.05
2022-08-07T07:22:05.309Z,56.74
2022-08-07T07:24:24.906Z,57.03
2022-08-07T07:26:54.493Z,59.58
2022-08-07T07:30:09.939Z,61.00
2022-08-07T07:33:04.999Z,61.45
2022-08-07T07:35:44.145Z,60.41
2022-08-07T07:38:25.937Z,60.31
2022-08-07T07:41:02.349Z,61.20
2022-08-07T07:44:14.344Z,60.34
2022-08-07T07:46:37.489Z,60.41
2022-08-07T07:50:33.336Z,60.19
2022-08-07T07:52:03.400Z,58.35
2022-08-07T07:54:31.911Z,57.89
2022-08-07T07:57:01.669Z,54.27
2022-08-07T07:59:51.658Z,54.83
2022-08-07T08:02:22.565Z,53.73
2022-08-07T08:05:22.356Z,54.19
2022-08-07T08:08:32.411Z,53.62
2022-08-07T08:11:01.621Z,52.67
2022-08-07T08:13:33.195Z,52.36
2022-08-07T08:16:05.746Z,51.67
2022-08-07T08:18:35.226Z,50.98
2022-08-07T08:21:03.381Z,49.78
2022-08-07T08:23:54.402Z,50.41
2022-08-07T08:26:40.834Z,50.17
2022-08-07T08:29:08.824Z,48.98
2022-08-07T08:32:17.353Z,47.73
2022-08-07T08:34:29.154Z,48.66
2022-08-07T08:37:02.847Z,47.14
2022-08-07T08:39:58.373Z,46.96
2022-08-07T08:42:55.128Z,46.68
2022-08-07T08:45:41.591Z,47.41
2022-08-07T08:48:44.553Z,47.32
2022-08-07T08:51:26.277Z,45.88
2022-08-07T08:54:15.945Z,46.51
2022-08-07T08:57:12.253Z,46.36
2022-08-07T09:00:07.139Z,45.75
2022-08-07T09:02:40.478Z,44.59
2022-08-07T09:05:32.319Z,44.36
2022-08-07T09:08:24.238Z,44.57
2022-08-07T09:11:24.948Z,44.29
2022-08-07T09:18:36.828Z,43.53
2022-08-07T09:21:33.859Z,42.77
2022-08-07T09:24:35.029Z,42.65
2022-08-07T09:27:19.887Z,42.93
2022-08-07T09:30:06.000Z,42.70
2022-08-07T09:33:52.846Z,41.62
2022-08-07T09:36:35.350Z,41.65
2022-08-07T09:39:54.570Z,41.79
2022-08-07T09:42:51.343Z,41.65
2022-08-07T09:56:34.036Z,41.33
2022-08-07T09:59:07.557Z,41.16
2022-08-07T10:01:57.769Z,40.06
2022-08-07T10:04:32.594Z,39.56
2022-08-07T10:07:39.732Z,40.33
2022-08-07T10:10:30.683Z,38.68
2022-08-07T10:13:10.973Z,38.54
2022-08-07T10:16:00.550Z,39.38
2022-08-07T10:18:51.160Z,38.61
2022-08-07T10:25:45.166Z,38.54
2022-08-07T10:42:01.692Z,36.61
2022-08-07T10:44:59.186Z,36.40
2022-08-07T10:47:52.722Z,36.61
2022-08-07T10:50:50.123Z,35.80
2022-08-07T10:53:28.491Z,35.71
2022-08-07T10:57:07.311Z,35.55
2022-08-07T11:00:36.686Z,35.23
2022-08-07T11:03:52.507Z,36.72
2022-08-07T11:11:46.110Z,34.93
2022-08-07T11:14:44.756Z,35.19
2022-08-07T11:17:43.373Z,34.80
2022-08-07T11:20:24.323Z,34.67
2022-08-07T11:23:38.490Z,34.31
2022-08-07T11:26:23.361Z,35.17
2022-08-07T11:29:43.006Z,34.96
2022-08-07T11:37:57.790Z,34.42
2022-08-07T11:40:49.515Z,34.66
2022-08-07T11:44:11.823Z,34.23
2022-08-07T11:46:56.967Z,34.09
2022-08-07T11:50:31.948Z,33.72
2022-08-07T11:53:16.964Z,34.02
2022-08-07T11:56:27.344Z,33.78
2022-08-07T11:59:00.637Z,33.93
2022-08-07T12:02:02.888Z,33.41
2022-08-07T12:05:28.310Z,33.15
2022-08-07T12:12:09.611Z,34.83
2022-08-07T12:14:42.467Z,33.56
2022-08-07T12:17:19.795Z,33.91
2022-08-07T12:19:56.755Z,34.63
2022-08-07T12:22:47.355Z,33.63
2022-08-07T12:26:29.104Z,34.24
2022-08-07T12:29:07.398Z,33.86
2022-08-07T12:32:04.146Z,33.89
2022-08-07T12:34:36.054Z,32.96
2022-08-07T12:37:08.787Z,32.85
2022-08-07T12:39:55.538Z,32.59
2022-08-07T12:43:10.796Z,32.93
2022-08-07T12:46:26.326Z,33.50
2022-08-07T12:49:39.729Z,33.55
2022-08-07T12:52:28.901Z,33.19
2022-08-07T12:55:40.651Z,33.26
2022-08-07T12:58:09.964Z,33.98
2022-08-07T13:01:17.262Z,33.10
2022-08-07T13:04:02.293Z,33.85
2022-08-07T13:07:00.909Z,32.82
2022-08-07T13:10:37.734Z,32.47
2022-08-07T13:13:07.255Z,32.90
2022-08-07T13:19:50.763Z,32.99
2022-08-07T13:22:31.392Z,33.11
2022-08-07T13:25:15.388Z,33.21
2022-08-07T13:28:11.078Z,32.24
2022-08-07T13:30:52.209Z,32.34
2022-08-07T13:34:32.787Z,32.35
2022-08-07T13:36:57.831Z,32.70
2022-08-07T13:40:34.346Z,32.52
2022-08-07T13:42:24.918Z,32.88
2022-08-07T13:45:20.516Z,32.49
2022-08-07T13:48:06.538Z,33.18
2022-08-07T13:51:26.810Z,32.69
2022-08-07T13:54:29.105Z,32.37
2022-08-07T13:57:03.269Z,32.93
2022-08-07T13:59:34.660Z,32.40
2022-08-07T14:02:13.281Z,32.57
2022-08-07T14:04:54.370Z,33.06
2022-08-07T14:07:24.475Z,32.62
2022-08-07T14:10:17.822Z,33.24
2022-08-07T14:12:58.555Z,32.32
2022-08-07T14:15:28.269Z,31.51
2022-08-07T14:18:31.791Z,32.60
2022-08-07T14:22:02.595Z,31.78
2022-08-07T14:24:52.019Z,31.74
2022-08-07T14:28:12.781Z,32.06
2022-08-07T14:30:36.614Z,32.14
2022-08-07T14:33:09.118Z,32.27
2022-08-07T14:35:44.607Z,31.76
2022-08-07T14:38:26.195Z,32.32
2022-08-07T14:41:03.803Z,32.35
2022-08-07T14:43:57.911Z,32.19
2022-08-07T14:46:33.332Z,31.87
2022-08-07T14:49:56.170Z,31.95
2022-08-07T14:52:04.890Z,31.73
2022-08-07T14:54:41.994Z,31.96
2022-08-07T14:57:19.078Z,31.93
2022-08-07T15:03:19.312Z,31.62
2022-08-07T15:05:55.071Z,32.66
2022-08-07T15:17:55.560Z,31.31
2022-08-07T15:20:33.265Z,31.33
2022-08-07T15:23:20.633Z,32.49
2022-08-07T15:25:59.641Z,31.70
2022-08-07T15:28:34.962Z,31.86
2022-08-07T15:31:11.096Z,32.39
2022-08-07T15:34:50.779Z,31.83
2022-08-07T15:40:38.000Z,32.31
2022-08-07T15:43:53.053Z,32.82
2022-08-07T15:46:37.639Z,31.68
2022-08-07T15:49:14.792Z,32.02
2022-08-07T15:52:03.214Z,32.15
2022-08-07T15:54:39.228Z,31.40
2022-08-07T15:57:10.739Z,32.25
2022-08-07T15:59:56.759Z,32.27
2022-08-07T16:02:29.690Z,31.75
2022-08-07T16:05:04.451Z,32.31
2022-08-07T16:12:12.231Z,32.68
2022-08-07T16:14:50.687Z,32.47
2022-08-07T16:18:02.338Z,32.22
2022-08-07T16:21:43.655Z,32.63
2022-08-07T16:24:33.950Z,32.29
2022-08-07T16:27:40.524Z,32.58
2022-08-07T16:30:30.131Z,32.20
2022-08-07T16:34:03.355Z,32.44
2022-08-07T16:36:20.674Z,32.32
2022-08-07T16:39:40.493Z,32.08
2022-08-07T16:50:52.833Z,32.40
2022-08-07T16:54:02.197Z,32.53
2022-08-07T16:56:44.811Z,32.57
2022-08-07T16:59:46.759Z,32.61
2022-08-07T17:02:53.251Z,32.47
2022-08-07T17:06:28.176Z,32.50
2022-08-07T17:09:14.130Z,32.77
2022-08-07T17:12:04.115Z,32.50
2022-08-07T17:14:54.177Z,32.64
2022-08-07T17:18:24.142Z,32.43
2022-08-07T17:21:22.668Z,32.57
2022-08-07T17:24:01.887Z,32.78
2022-08-07T17:26:49.757Z,32.63
2022-08-07T17:30:14.764Z,32.97
2022-08-07T17:32:39.841Z,33.00
2022-08-07T17:35:54.941Z,33.37
2022-08-07T17:38:34.250Z,32.92
2022-08-07T17:42:02.409Z,32.85
2022-08-07T17:44:41.583Z,32.83
2022-08-07T17:47:38.346Z,33.01
2022-08-07T17:50:19.299Z,33.10
2022-08-07T17:53:00.567Z,33.03
2022-08-07T17:56:00.785Z,32.94
2022-08-07T17:58:39.744Z,32.82
2022-08-07T18:01:51.681Z,32.82
2022-08-07T18:04:48.684Z,32.71
2022-08-07T18:07:34.154Z,32.53
2022-08-07T18:10:32.377Z,33.01
2022-08-07T18:12:59.763Z,32.78
2022-08-07T18:15:33.008Z,32.50
2022-08-07T18:18:46.908Z,32.76
2022-08-07T18:21:37.404Z,33.07
2022-08-07T18:24:34.683Z,33.01
2022-08-07T18:27:51.979Z,33.23
2022-08-07T18:31:07.498Z,32.81
2022-08-07T18:33:59.698Z,32.62
2022-08-07T18:36:33.734Z,33.69
2022-08-07T18:40:08.271Z,33.17
2022-08-07T18:42:20.919Z,33.21
2022-08-07T18:45:42.966Z,32.87
2022-08-07T18:49:23.853Z,33.31
2022-08-07T18:55:42.626Z,32.60
2022-08-07T18:57:59.418Z,32.21
2022-08-07T19:04:56.130Z,31.78
2022-08-07T19:07:35.533Z,31.82
2022-08-07T19:10:10.925Z,31.77
2022-08-07T19:12:48.974Z,31.46
2022-08-07T19:16:04.215Z,32.05
2022-08-07T19:18:45.000Z,32.82
2022-08-07T19:21:47.899Z,32.21
2022-08-07T19:24:44.677Z,31.60
2022-08-07T19:28:28.677Z,31.23
2022-08-07T19:31:04.457Z,31.27
2022-08-07T19:32:59.879Z,31.44
2022-08-07T19:36:02.210Z,31.52
2022-08-07T19:38:52.879Z,31.55
2022-08-07T19:41:44.370Z,31.34
2022-08-07T19:44:21.933Z,32.20
2022-08-07T19:46:55.895Z,31.53
2022-08-07T19:49:57.823Z,31.87
2022-08-07T19:52:18.558Z,31.16
2022-08-07T19:54:58.349Z,31.58
2022-08-07T19:58:02.615Z,31.47
2022-08-07T20:00:28.851Z,32.43
2022-08-07T20:03:02.023Z,31.79
2022-08-07T20:06:00.019Z,31.67
2022-08-07T20:08:27.156Z,31.54
2022-08-07T20:12:23.395Z,32.84
2022-08-07T20:20:08.553Z,32.78
2022-08-07T20:28:38.509Z,32.29
2022-08-07T20:31:21.398Z,32.22
2022-08-07T20:33:56.528Z,32.35
2022-08-07T20:36:27.180Z,32.21
2022-08-07T20:39:00.471Z,32.34
2022-08-07T20:41:38.100Z,32.47
2022-08-07T20:44:49.577Z,32.19
2022-08-07T20:48:05.555Z,32.33
2022-08-07T20:50:33.292Z,32.53
2022-08-07T20:53:00.583Z,32.38
2022-08-07T20:55:28.795Z,32.60
2022-08-07T20:58:04.216Z,32.98
2022-08-07T21:03:42.303Z,33.61
2022-08-07T21:06:25.859Z,33.24
2022-08-07T21:09:07.474Z,32.84
2022-08-07T21:11:50.041Z,32.64
2022-08-07T21:14:33.134Z,32.85
2022-08-07T21:18:03.912Z,32.84
2022-08-07T21:20:48.053Z,33.20
2022-08-07T21:23:50.260Z,33.12
2022-08-07T21:26:45.266Z,32.99
2022-08-07T21:29:18.226Z,33.08
2022-08-07T21:35:02.574Z,33.20
2022-08-07T21:37:58.224Z,33.52
2022-08-07T21:40:50.245Z,33.60
2022-08-07T21:43:47.131Z,33.75
2022-08-07T21:46:43.534Z,34.06
2022-08-07T21:49:28.794Z,33.99
2022-08-07T21:52:13.052Z,34.11
2022-08-07T21:55:43.237Z,35.45
2022-08-07T21:59:26.675Z,34.44
2022-08-07T22:02:13.222Z,34.00
2022-08-07T22:04:53.661Z,34.19
2022-08-07T22:07:20.910Z,34.20
2022-08-07T22:09:55.472Z,34.17
2022-08-07T22:13:00.886Z,34.45
2022-08-07T22:16:40.948Z,35.42
2022-08-07T22:18:32.598Z,36.06
2022-08-07T22:21:11.456Z,35.95
2022-08-07T22:23:47.403Z,36.08
2022-08-07T22:26:44.663Z,35.14
2022-08-07T22:30:12.520Z,36.12
2022-08-07T22:33:06.256Z,35.96
2022-08-07T22:35:42.233Z,35.19
2022-08-07T22:38:25.838Z,34.68
2022-08-07T22:41:16.337Z,35.46
2022-08-07T22:43:51.916Z,34.63
2022-08-07T22:47:04.239Z,34.60
2022-08-07T22:50:13.571Z,34.09
2022-08-07T22:53:18.794Z,34.70
2022-08-07T22:56:13.059Z,34.81
2022-08-07T22:59:07.443Z,34.56
2022-08-07T23:02:20.244Z,34.28
2022-08-07T23:08:54.491Z,34.38
2022-08-07T23:11:45.965Z,34.74
2022-08-07T23:14:33.931Z,35.07
2022-08-07T23:17:54.672Z,35.46
2022-08-07T23:21:17.473Z,35.37
2022-08-07T23:24:17.043Z,35.72
2022-08-07T23:26:50.309Z,35.15
2022-08-07T23:29:43.151Z,35.48
2022-08-07T23:34:22.882Z,35.64
2022-08-07T23:36:02.622Z,35.87
2022-08-07T23:44:29.477Z,36.38
2022-08-07T23:47:19.044Z,36.46
2022-08-07T23:50:01.402Z,36.34
2022-08-07T23:53:00.214Z,36.47
2022-08-07T23:56:14.189Z,36.85
2022-08-07T23:58:54.898Z,38.44
